Thursday, January 17, 2019, 9:19 PM EST
Back to Local

KIWI, Wiscasset Municipal Airport

Location: Wiscasset, ME, United States Lat: 43.967
Local Time: 9:19 PM EST ( 2:19 GMT) Lon: -69.717
Time Zone: US/Eastern Elev: 68 ft

Show me the last for .
Show Decoded

2019-01-17 20:53 METAR KIWI 180153Z AUTO 00000KT 10SM CLR M11/M14 A3038 RMK AO2 SLP287 T11061144
                 =
2019-01-17 19:53 METAR KIWI 180053Z AUTO 00000KT 10SM CLR M11/M14 A3038 RMK AO2 SLP289 T11061144
                 =
2019-01-17 18:53 METAR KIWI 172353Z AUTO 00000KT 10SM CLR M12/M17 A3038 RMK AO2 SLP288 T11221172
                 11067 21122 51007 =
2019-01-17 17:53 METAR KIWI 172253Z AUTO 00000KT 10SM CLR M12/M18 A3038 RMK AO2 SLP287 T11171178
                 =
2019-01-17 16:53 METAR KIWI 172153Z AUTO 00000KT 10SM CLR M10/M19 A3037 RMK AO2 SLP284 T11001189
                 =
2019-01-17 15:53 METAR KIWI 172053Z AUTO 00000KT 10SM CLR M07/M23 A3036 RMK AO2 SLP281 T10721228
                 58001 =
2019-01-17 14:53 METAR KIWI 171953Z AUTO 00000KT 10SM CLR M07/M23 A3036 RMK AO2 SLP283 T10671228
                 =
2019-01-17 13:53 METAR KIWI 171853Z AUTO VRB04KT 10SM CLR M07/M23 A3036 RMK AO2 SLP281 T10671228
                 =
2019-01-17 12:53 METAR KIWI 171753Z AUTO VRB04KT 10SM CLR M08/M24 A3036 RMK AO2 SLP282 T10781239
                 11072 21139 58010 =
2019-01-17 11:53 METAR KIWI 171653Z AUTO 10SM CLR M08/M23 A3037 RMK AO2 SLP284 T10831233 =
2019-01-17 10:53 METAR KIWI 171553Z AUTO 32006KT 10SM CLR M09/M23 A3039 RMK AO2 SLP293 T10941228
                 =
2019-01-17 09:53 METAR KIWI 171453Z AUTO 10SM CLR M11/M22 A3039 RMK AO2 SLP292 T11061217 53017 =
2019-01-17 08:53 METAR KIWI 171353Z AUTO 32007KT 260V020 10SM CLR M12/M21 A3038 RMK AO2 SLP287
                 T11171206 =
2019-01-17 07:53 METAR KIWI 171253Z AUTO VRB03KT 10SM CLR M13/M19 A3035 RMK AO2 SLP280 T11331194
                 =
2019-01-17 06:53 METAR KIWI 171153Z AUTO 00000KT 10SM CLR M13/M19 A3034 RMK AO2 SLP275 T11331194
                 11083 21133 51024 =
2019-01-17 05:53 METAR KIWI 171053Z AUTO 00000KT 10SM CLR M13/M19 A3032 RMK AO2 SLP269 T11331194
                 =
2019-01-17 04:53 METAR KIWI 170953Z AUTO VRB03KT 10SM CLR M12/M19 A3029 RMK AO2 SLP259 T11221189
                 =
2019-01-17 03:53 METAR KIWI 170853Z AUTO 10SM CLR M12/M19 A3027 RMK AO2 SLP251 T11171189 51039 =
2019-01-17 02:53 METAR KIWI 170753Z AUTO VRB04KT 10SM CLR M11/M19 A3025 RMK AO2 SLP245 T11111189
                 =
2019-01-17 01:53 METAR KIWI 170653Z AUTO VRB04G16KT 10SM CLR M10/M19 A3021 RMK AO2 PRESRR SLP231
                 T11001189 =
2019-01-17 00:53 METAR KIWI 170553Z AUTO VRB05KT 10SM CLR M08/M17 A3016 RMK AO2 SLP212 T10831172
                 10011 21083 51047 =
2019-01-16 23:53 METAR KIWI 170453Z AUTO 32007G19KT 280V020 10SM CLR M07/M17 A3013 RMK AO2 SLP202
                 T10671172 400221067 =
2019-01-16 22:53 METAR KIWI 170353Z AUTO 33007G17KT 270V020 10SM CLR M03/M13 A3008 RMK AO2 PRESRR
                 SLP186 T10331128 =
2019-01-16 21:53 METAR KIWI 170253Z AUTO VRB05KT 10SM FEW050 M01/M11 A3002 RMK AO2 PRESRR SLP166
                 T10061106 53039 =

Support USWX by starting your Amazon purchase here.